createdAt,value
2022-08-31T00:00:52.043Z,22.25
2022-08-31T00:03:52.043Z,22.25
2022-08-31T00:06:53.760Z,22.25
2022-08-31T00:09:52.048Z,22.25
2022-08-31T00:12:52.045Z,22.25
2022-08-31T00:15:52.044Z,22.25
2022-08-31T00:18:52.035Z,22.2
2022-08-31T00:21:52.048Z,22.2
2022-08-31T00:24:52.053Z,22.15
2022-08-31T00:27:52.051Z,22.15
2022-08-31T00:30:52.048Z,22.2
2022-08-31T00:33:52.045Z,22.15
2022-08-31T00:36:52.047Z,22.15
2022-08-31T00:39:52.047Z,22.15
2022-08-31T00:42:52.052Z,22.15
2022-08-31T00:45:52.111Z,22.15
2022-08-31T00:48:52.044Z,22.15
2022-08-31T00:51:52.054Z,22.15
2022-08-31T00:54:52.053Z,22.1
2022-08-31T00:57:52.048Z,22.05
2022-08-31T01:00:52.123Z,22.05
2022-08-31T01:03:52.057Z,22.05
2022-08-31T01:06:52.061Z,22.05
2022-08-31T01:09:53.238Z,22.05
2022-08-31T01:12:52.056Z,21.95
2022-08-31T01:15:53.952Z,21.95
2022-08-31T01:18:52.052Z,21.95
2022-08-31T01:21:52.102Z,21.95
2022-08-31T01:24:52.051Z,21.9
2022-08-31T01:27:52.057Z,21.85
2022-08-31T01:30:52.055Z,21.85
2022-08-31T01:33:52.053Z,21.85
2022-08-31T01:36:52.059Z,21.8
2022-08-31T01:39:52.053Z,21.8
2022-08-31T01:42:52.056Z,21.8
2022-08-31T01:45:52.052Z,21.8
2022-08-31T01:48:52.059Z,21.8
2022-08-31T01:51:52.054Z,21.8
2022-08-31T01:54:52.056Z,21.8
2022-08-31T01:57:52.057Z,21.75
2022-08-31T02:00:52.095Z,21.75
2022-08-31T02:03:52.050Z,21.7
2022-08-31T02:06:52.056Z,21.7
2022-08-31T02:09:52.061Z,21.7
2022-08-31T02:12:52.051Z,21.7
2022-08-31T02:15:52.090Z,21.7
2022-08-31T02:18:52.057Z,21.7
2022-08-31T02:21:52.058Z,21.7
2022-08-31T02:24:52.051Z,21.7
2022-08-31T02:27:52.059Z,21.7
2022-08-31T02:30:52.061Z,21.65
2022-08-31T02:33:52.056Z,21.65
2022-08-31T02:36:52.061Z,21.65
2022-08-31T02:39:52.062Z,21.65
2022-08-31T02:42:52.573Z,21.65
2022-08-31T02:45:53.649Z,21.6
2022-08-31T02:48:52.055Z,21.6
2022-08-31T02:51:52.060Z,21.55
2022-08-31T02:54:52.058Z,21.55
2022-08-31T02:57:52.055Z,21.5
2022-08-31T03:00:52.056Z,21.5
2022-08-31T03:03:52.055Z,21.5
2022-08-31T03:06:52.060Z,21.5
2022-08-31T03:09:52.064Z,21.45
2022-08-31T03:12:52.064Z,21.4
2022-08-31T03:15:52.155Z,21.4
2022-08-31T03:18:52.062Z,21.4
2022-08-31T03:21:56.050Z,21.4
2022-08-31T03:24:52.077Z,21.4
2022-08-31T03:27:52.075Z,21.4
2022-08-31T03:30:52.109Z,21.4
2022-08-31T03:33:52.077Z,21.4
2022-08-31T03:36:52.073Z,21.4
2022-08-31T03:39:52.078Z,21.35
2022-08-31T03:42:52.074Z,21.35
2022-08-31T03:45:52.106Z,21.35
2022-08-31T03:48:52.067Z,21.35
2022-08-31T03:51:52.075Z,21.35
2022-08-31T03:54:52.076Z,21.35
2022-08-31T03:57:52.073Z,21.35
2022-08-31T04:00:52.079Z,21.35
2022-08-31T04:03:52.075Z,21.35
2022-08-31T04:06:52.081Z,21.35
2022-08-31T04:09:52.070Z,21.35
2022-08-31T04:12:52.083Z,21.3
2022-08-31T04:15:52.141Z,21.3
2022-08-31T04:18:52.075Z,21.3
2022-08-31T04:21:52.066Z,21.3
2022-08-31T04:24:52.086Z,21.3
2022-08-31T04:27:52.083Z,21.25
2022-08-31T04:30:52.122Z,21.25
2022-08-31T04:33:52.078Z,21.25
2022-08-31T04:36:52.088Z,21.25
2022-08-31T04:39:52.333Z,21.25
2022-08-31T04:42:52.082Z,21.25
2022-08-31T04:45:52.142Z,21.25
2022-08-31T04:48:52.079Z,21.25
2022-08-31T04:51:52.088Z,21.25
2022-08-31T04:54:52.078Z,21.25
2022-08-31T04:57:52.080Z,21.25
2022-08-31T05:00:52.085Z,21.25
2022-08-31T05:03:52.083Z,21.25
2022-08-31T05:06:52.079Z,21.25
2022-08-31T05:09:52.081Z,21.25
2022-08-31T05:12:52.117Z,21.2
2022-08-31T05:15:54.744Z,21.2
2022-08-31T05:18:52.086Z,21.15
2022-08-31T05:21:52.085Z,21.15
2022-08-31T05:24:52.085Z,21.15
2022-08-31T05:27:52.099Z,21.15
2022-08-31T05:30:52.174Z,21.15
2022-08-31T05:33:52.112Z,21.15
2022-08-31T05:36:52.108Z,21.15
2022-08-31T05:39:52.106Z,21.15
2022-08-31T05:42:52.104Z,21.15
2022-08-31T05:45:52.165Z,21.15
2022-08-31T05:48:52.095Z,21.15
2022-08-31T05:51:52.096Z,21.15
2022-08-31T05:54:52.092Z,21.1
2022-08-31T05:57:52.115Z,21.1
2022-08-31T06:00:52.101Z,21.05
2022-08-31T06:03:52.096Z,21.05
2022-08-31T06:06:52.104Z,21
2022-08-31T06:09:52.094Z,21
2022-08-31T06:12:52.104Z,21
2022-08-31T06:15:52.176Z,20.95
2022-08-31T06:18:52.097Z,20.95
2022-08-31T08:27:52.151Z,21.15
2022-08-31T08:30:52.098Z,21.15
2022-08-31T08:33:52.101Z,21.15
2022-08-31T08:36:52.097Z,21.15
2022-08-31T08:39:52.101Z,21.15
2022-08-31T08:42:52.101Z,21.15
2022-08-31T08:45:52.159Z,21.1
2022-08-31T08:49:49.755Z,21.1
2022-08-31T08:51:52.103Z,21.1
2022-08-31T08:54:52.111Z,21.1
2022-08-31T08:57:52.122Z,21.1
2022-08-31T09:00:52.096Z,21.1
2022-08-31T09:03:52.108Z,21.1
2022-08-31T09:06:54.271Z,21.1
2022-08-31T09:09:52.103Z,21.05
2022-08-31T09:12:52.103Z,21.1
2022-08-31T09:15:52.286Z,21.1
2022-08-31T09:18:52.109Z,21.1
2022-08-31T09:21:52.096Z,21.1
2022-08-31T09:24:52.292Z,21.1
2022-08-31T09:27:52.107Z,21.15
2022-08-31T09:30:52.394Z,21.15
2022-08-31T09:33:52.102Z,21.15
2022-08-31T09:36:52.103Z,21.2
2022-08-31T09:39:52.101Z,21.25
2022-08-31T09:42:52.110Z,21.25
2022-08-31T09:45:52.147Z,21.25
2022-08-31T09:48:52.131Z,21.25
2022-08-31T09:51:52.107Z,21.3
2022-08-31T09:54:52.107Z,21.3
2022-08-31T09:57:52.116Z,21.3
2022-08-31T10:00:52.107Z,21.3
2022-08-31T10:03:52.099Z,21.4
2022-08-31T10:06:52.101Z,21.4
2022-08-31T10:09:52.366Z,21.4
2022-08-31T10:12:52.105Z,21.4
2022-08-31T10:15:52.176Z,21.4
2022-08-31T10:18:52.115Z,21.4
2022-08-31T10:21:52.154Z,21.4
2022-08-31T10:24:52.095Z,21.4
2022-08-31T10:27:52.116Z,21.4
2022-08-31T10:30:52.167Z,21.45
2022-08-31T10:33:52.122Z,21.45
2022-08-31T10:36:52.106Z,21.55
2022-08-31T10:39:52.112Z,21.55
2022-08-31T10:42:52.120Z,21.55
2022-08-31T10:45:52.170Z,21.6
2022-08-31T10:48:52.116Z,21.65
2022-08-31T10:51:52.113Z,21.75
2022-08-31T10:54:52.140Z,21.85
2022-08-31T10:57:52.113Z,21.9
2022-08-31T11:00:52.112Z,21.95
2022-08-31T11:03:52.123Z,22.05
2022-08-31T11:06:52.112Z,22.2
2022-08-31T11:09:52.117Z,22.3
2022-08-31T11:12:52.116Z,22.45
2022-08-31T11:15:52.178Z,22.45
2022-08-31T11:18:52.128Z,22.55
2022-08-31T11:21:52.121Z,22.6
2022-08-31T11:24:52.128Z,22.7
2022-08-31T11:27:52.121Z,22.85
2022-08-31T11:30:52.160Z,22.95
2022-08-31T11:34:14.467Z,23.05
2022-08-31T11:36:52.116Z,23.15
2022-08-31T11:39:52.133Z,23.25
2022-08-31T11:42:52.126Z,23.3
2022-08-31T11:45:52.155Z,23.4
2022-08-31T11:48:52.132Z,23.4
2022-08-31T11:51:52.102Z,23.45
2022-08-31T11:54:52.120Z,23.5
2022-08-31T11:57:52.124Z,23.55
2022-08-31T12:00:52.696Z,23.55
2022-08-31T12:03:52.125Z,23.55
2022-08-31T12:06:52.114Z,23.6
2022-08-31T12:09:52.125Z,23.65
2022-08-31T12:12:52.119Z,23.7
2022-08-31T12:15:52.134Z,23.75
2022-08-31T12:18:52.126Z,23.8
2022-08-31T12:21:52.113Z,23.8
2022-08-31T12:24:52.117Z,23.85
2022-08-31T12:27:52.125Z,23.9
2022-08-31T12:30:52.196Z,24
2022-08-31T12:33:52.117Z,23.95
2022-08-31T12:36:52.131Z,23.95
2022-08-31T12:39:52.227Z,23.95
2022-08-31T12:42:52.122Z,23.95
2022-08-31T12:45:52.188Z,23.95
2022-08-31T12:48:52.129Z,23.95
2022-08-31T12:51:52.128Z,24
2022-08-31T12:54:52.122Z,24
2022-08-31T12:57:52.130Z,24.05
2022-08-31T13:00:52.131Z,24.05
2022-08-31T13:03:54.194Z,24.05
2022-08-31T13:06:52.132Z,24.05
2022-08-31T13:09:52.117Z,24
2022-08-31T13:12:52.129Z,24
2022-08-31T13:15:52.136Z,23.95
2022-08-31T13:18:52.129Z,23.95
2022-08-31T13:21:52.171Z,23.9
2022-08-31T13:24:53.540Z,23.95
2022-08-31T13:27:52.129Z,23.95
2022-08-31T13:30:54.961Z,23.95
2022-08-31T13:33:52.134Z,23.95
2022-08-31T13:36:53.121Z,23.95
2022-08-31T13:39:52.136Z,23.95
2022-08-31T13:42:56.652Z,23.95
2022-08-31T13:45:52.140Z,24
2022-08-31T13:48:52.127Z,24
2022-08-31T13:51:52.127Z,24.05
2022-08-31T13:54:52.135Z,24.05
2022-08-31T13:57:52.130Z,24.05
2022-08-31T14:00:52.239Z,24.05
2022-08-31T14:03:52.129Z,24.05
2022-08-31T14:06:52.128Z,24.1
2022-08-31T14:09:52.139Z,24.1
2022-08-31T14:12:52.126Z,24.05
2022-08-31T14:15:52.127Z,24.05
2022-08-31T14:18:52.127Z,24.05
2022-08-31T14:21:53.772Z,24.05
2022-08-31T14:24:52.130Z,24.05
2022-08-31T14:27:52.131Z,24.1
2022-08-31T14:30:52.190Z,24.1
2022-08-31T14:33:52.133Z,24.1
2022-08-31T14:36:52.134Z,24.15
2022-08-31T14:39:52.132Z,24.15
2022-08-31T14:42:52.139Z,24.15
2022-08-31T14:45:52.195Z,24.15
2022-08-31T14:48:52.161Z,24.15
2022-08-31T14:51:52.140Z,24.2
2022-08-31T14:54:52.137Z,24.2
2022-08-31T14:57:52.153Z,24.2
2022-08-31T15:00:53.831Z,24.2
2022-08-31T15:03:52.142Z,24.2
2022-08-31T15:06:52.135Z,24.2
2022-08-31T15:09:52.141Z,24.2
2022-08-31T15:12:52.140Z,24.15
2022-08-31T15:15:52.142Z,24.15
2022-08-31T15:18:52.139Z,24.1
2022-08-31T15:21:52.925Z,24.1
2022-08-31T15:24:52.131Z,24.05
2022-08-31T15:27:52.143Z,24.05
2022-08-31T15:30:52.135Z,24.05
2022-08-31T15:33:52.136Z,24.05
2022-08-31T15:36:52.137Z,24
2022-08-31T15:39:52.143Z,24
2022-08-31T15:42:52.138Z,24
2022-08-31T15:45:52.193Z,24
2022-08-31T15:48:52.141Z,24
2022-08-31T15:51:52.191Z,24
2022-08-31T15:54:52.185Z,24
2022-08-31T15:57:52.190Z,24
2022-08-31T16:00:52.236Z,23.9
2022-08-31T16:03:52.188Z,23.9
2022-08-31T16:06:52.184Z,23.85
2022-08-31T16:09:52.191Z,23.85
2022-08-31T16:12:52.196Z,23.8
2022-08-31T16:15:52.192Z,23.8
2022-08-31T16:18:52.189Z,23.8
2022-08-31T16:21:52.196Z,23.75
2022-08-31T16:24:52.196Z,23.75
2022-08-31T16:27:52.190Z,23.7
2022-08-31T16:30:52.192Z,23.65
2022-08-31T16:33:52.194Z,23.65
2022-08-31T16:36:52.191Z,23.65
2022-08-31T16:39:52.221Z,23.6
2022-08-31T16:42:52.188Z,23.6
2022-08-31T16:45:52.237Z,23.6
2022-08-31T16:48:52.184Z,23.6
2022-08-31T16:51:52.191Z,23.6
2022-08-31T16:54:52.196Z,23.6
2022-08-31T16:57:52.187Z,23.6
2022-08-31T17:00:52.254Z,23.6
2022-08-31T17:03:52.187Z,23.6
2022-08-31T17:06:52.202Z,23.55
2022-08-31T17:09:52.193Z,23.55
2022-08-31T17:12:52.195Z,23.55
2022-08-31T17:15:52.183Z,23.45
2022-08-31T17:18:52.195Z,23.45
2022-08-31T17:21:52.191Z,23.4
2022-08-31T17:24:52.190Z,23.4
2022-08-31T17:27:53.470Z,23.4
2022-08-31T17:30:52.181Z,23.3
2022-08-31T17:33:52.193Z,23.3
2022-08-31T17:36:52.194Z,23.25
2022-08-31T17:39:52.183Z,23.25
2022-08-31T17:42:52.943Z,23.25
2022-08-31T17:45:52.186Z,23.2
2022-08-31T17:48:52.192Z,23.15
2022-08-31T17:51:52.188Z,23.15
2022-08-31T17:54:52.186Z,23.1
2022-08-31T17:57:52.193Z,23.05
2022-08-31T18:00:52.241Z,23.05
2022-08-31T18:03:52.190Z,23
2022-08-31T18:06:52.185Z,23
2022-08-31T18:09:52.217Z,23
2022-08-31T18:12:52.203Z,22.9
2022-08-31T18:15:52.226Z,22.9
2022-08-31T18:18:52.203Z,22.9
2022-08-31T18:21:52.207Z,22.85
2022-08-31T18:24:52.201Z,22.8
2022-08-31T18:27:52.207Z,22.8
2022-08-31T18:30:52.204Z,22.75
2022-08-31T18:33:52.239Z,22.75
2022-08-31T18:36:52.204Z,22.7
2022-08-31T18:39:52.478Z,22.7
2022-08-31T18:42:52.208Z,22.65
2022-08-31T18:45:52.201Z,22.65
2022-08-31T18:48:52.207Z,22.65
2022-08-31T18:51:52.208Z,22.6
2022-08-31T18:54:52.205Z,22.55
2022-08-31T18:57:52.201Z,22.55
2022-08-31T19:00:52.325Z,22.55
2022-08-31T19:03:52.208Z,22.45
2022-08-31T19:06:52.209Z,22.45
2022-08-31T19:09:52.208Z,22.45
2022-08-31T19:12:52.203Z,22.4
2022-08-31T19:15:52.258Z,22.35
2022-08-31T19:18:52.212Z,22.35
2022-08-31T19:21:52.209Z,22.3
2022-08-31T19:24:52.209Z,22.25
2022-08-31T19:27:52.213Z,22.25
2022-08-31T19:30:52.211Z,22.25
2022-08-31T19:33:56.330Z,22.2
2022-08-31T19:36:54.589Z,22.15
2022-08-31T19:39:52.211Z,22.1
2022-08-31T19:42:59.997Z,22.1
2022-08-31T19:45:52.211Z,22.05
2022-08-31T19:48:52.210Z,22.05
2022-08-31T19:51:52.210Z,21.95
2022-08-31T19:54:52.218Z,21.95
2022-08-31T19:57:52.219Z,21.95
2022-08-31T20:00:52.220Z,21.95
2022-08-31T20:03:52.221Z,21.85
2022-08-31T20:06:52.520Z,21.85
2022-08-31T20:09:52.219Z,21.85
2022-08-31T20:12:52.399Z,21.85
2022-08-31T20:15:52.282Z,21.8
2022-08-31T20:18:52.272Z,21.75
2022-08-31T20:21:52.253Z,21.75
2022-08-31T20:24:52.265Z,21.75
2022-08-31T20:27:52.262Z,21.7
2022-08-31T20:30:52.431Z,21.7
2022-08-31T20:33:52.258Z,21.65
2022-08-31T20:36:52.267Z,21.65
2022-08-31T20:39:52.276Z,21.65
2022-08-31T20:42:52.262Z,21.6
2022-08-31T20:45:52.233Z,21.6
2022-08-31T20:48:52.217Z,21.55
2022-08-31T20:51:52.250Z,21.55
2022-08-31T20:54:52.217Z,21.45
2022-08-31T20:57:52.223Z,21.45
2022-08-31T21:00:52.227Z,21.45
2022-08-31T21:03:52.210Z,21.45
2022-08-31T21:06:52.226Z,21.4
2022-08-31T21:09:52.240Z,21.35
2022-08-31T21:12:53.304Z,21.35
2022-08-31T21:15:52.251Z,21.35
2022-08-31T21:18:52.214Z,21.3
2022-08-31T21:21:52.232Z,21.3
2022-08-31T21:24:52.225Z,21.3
2022-08-31T21:27:52.216Z,21.25
2022-08-31T21:30:52.258Z,21.25
2022-08-31T21:33:52.221Z,21.25
2022-08-31T21:36:52.242Z,21.25
2022-08-31T21:39:55.798Z,21.2
2022-08-31T21:42:52.224Z,21.2
2022-08-31T21:45:54.971Z,21.15
2022-08-31T21:48:52.220Z,21.15
2022-08-31T21:51:52.227Z,21.15
2022-08-31T21:54:52.227Z,21.15
2022-08-31T21:57:52.221Z,21.15
2022-08-31T22:00:52.235Z,21.1
2022-08-31T22:03:52.226Z,21.1
2022-08-31T22:06:52.406Z,21.05
2022-08-31T22:09:52.238Z,21.05
2022-08-31T22:12:52.228Z,21
2022-08-31T22:15:52.284Z,21
2022-08-31T22:19:01.591Z,21
2022-08-31T22:21:52.232Z,20.9
2022-08-31T22:24:52.243Z,20.9
2022-08-31T22:27:52.226Z,20.9
2022-08-31T22:30:52.269Z,20.85
2022-08-31T22:33:52.245Z,20.8
2022-08-31T22:36:52.236Z,20.8
2022-08-31T22:39:52.228Z,20.75
2022-08-31T22:42:52.230Z,20.7
2022-08-31T22:45:52.219Z,20.7
2022-08-31T22:48:52.223Z,20.65
2022-08-31T22:51:52.230Z,20.65
2022-08-31T22:54:52.231Z,20.65
2022-08-31T22:57:52.233Z,20.55
2022-08-31T23:00:52.232Z,20.55
2022-08-31T23:03:52.277Z,20.55
2022-08-31T23:06:52.232Z,20.55
2022-08-31T23:09:52.232Z,20.5
2022-08-31T23:12:52.231Z,20.5
2022-08-31T23:15:52.243Z,20.45
2022-08-31T23:18:52.237Z,20.45
2022-08-31T23:21:52.783Z,20.4
2022-08-31T23:24:52.241Z,20.35
2022-08-31T23:27:52.229Z,20.35
2022-08-31T23:30:52.310Z,20.35
2022-08-31T23:33:52.238Z,20.3
2022-08-31T23:36:52.243Z,20.25
2022-08-31T23:39:52.244Z,20.25
2022-08-31T23:42:52.246Z,20.25
2022-08-31T23:45:52.270Z,20.2
2022-08-31T23:48:52.255Z,20.2
2022-08-31T23:51:52.260Z,20.15
2022-08-31T23:54:52.258Z,20.1
2022-08-31T23:57:52.253Z,20.1
